sensor_id;sensor_type;location;lat;lon;timestamp;temperature;humidity
78902;DHT22;70441;44.758;37.686;2023-08-08T00:00:27;25.20;64.94
78902;DHT22;70441;44.758;37.686;2023-08-08T00:01:28;25.24;65.13
78902;DHT22;70441;44.758;37.686;2023-08-08T00:02:29;25.23;65.13
78902;DHT22;70441;44.758;37.686;2023-08-08T00:03:30;25.20;65.51
78902;DHT22;70441;44.758;37.686;2023-08-08T00:04:32;25.22;65.40
78902;DHT22;70441;44.758;37.686;2023-08-08T00:05:33;25.24;65.17
78902;DHT22;70441;44.758;37.686;2023-08-08T00:06:34;25.27;64.83
78902;DHT22;70441;44.758;37.686;2023-08-08T00:07:36;25.27;64.89
78902;DHT22;70441;44.758;37.686;2023-08-08T00:08:37;25.24;64.73
78902;DHT22;70441;44.758;37.686;2023-08-08T00:09:38;25.31;64.64
78902;DHT22;70441;44.758;37.686;2023-08-08T00:10:40;25.35;64.47
78902;DHT22;70441;44.758;37.686;2023-08-08T00:11:41;25.38;64.29
78902;DHT22;70441;44.758;37.686;2023-08-08T00:12:42;25.35;64.32
78902;DHT22;70441;44.758;37.686;2023-08-08T00:13:44;25.35;64.33
78902;DHT22;70441;44.758;37.686;2023-08-08T00:14:45;25.35;64.27
78902;DHT22;70441;44.758;37.686;2023-08-08T00:15:46;25.37;64.17
78902;DHT22;70441;44.758;37.686;2023-08-08T00:16:47;25.37;64.12
78902;DHT22;70441;44.758;37.686;2023-08-08T00:17:49;25.37;64.12
78902;DHT22;70441;44.758;37.686;2023-08-08T00:18:50;25.35;64.06
78902;DHT22;70441;44.758;37.686;2023-08-08T00:19:54;25.33;64.18
78902;DHT22;70441;44.758;37.686;2023-08-08T00:20:56;25.33;64.36
78902;DHT22;70441;44.758;37.686;2023-08-08T00:21:58;25.30;64.54
78902;DHT22;70441;44.758;37.686;2023-08-08T00:22:59;25.26;64.67
78902;DHT22;70441;44.758;37.686;2023-08-08T00:24:00;25.27;64.78
78902;DHT22;70441;44.758;37.686;2023-08-08T00:25:02;25.28;64.70
78902;DHT22;70441;44.758;37.686;2023-08-08T00:26:03;25.26;64.74
78902;DHT22;70441;44.758;37.686;2023-08-08T00:27:05;25.26;64.90
78902;DHT22;70441;44.758;37.686;2023-08-08T00:28:06;25.19;64.92
78902;DHT22;70441;44.758;37.686;2023-08-08T00:29:08;25.22;64.83
78902;DHT22;70441;44.758;37.686;2023-08-08T00:30:11;25.22;64.84
78902;DHT22;70441;44.758;37.686;2023-08-08T00:31:13;25.20;64.96
78902;DHT22;70441;44.758;37.686;2023-08-08T00:32:19;25.20;64.87
78902;DHT22;70441;44.758;37.686;2023-08-08T00:33:20;25.17;64.76
78902;DHT22;70441;44.758;37.686;2023-08-08T00:34:22;25.17;64.73
78902;DHT22;70441;44.758;37.686;2023-08-08T00:35:23;25.19;64.60
78902;DHT22;70441;44.758;37.686;2023-08-08T00:36:25;25.20;64.69
78902;DHT22;70441;44.758;37.686;2023-08-08T00:37:26;25.17;64.76
78902;DHT22;70441;44.758;37.686;2023-08-08T00:38:27;25.14;64.87
78902;DHT22;70441;44.758;37.686;2023-08-08T00:39:29;25.10;64.69
78902;DHT22;70441;44.758;37.686;2023-08-08T00:40:30;25.09;64.72
78902;DHT22;70441;44.758;37.686;2023-08-08T00:41:31;25.09;64.82
78902;DHT22;70441;44.758;37.686;2023-08-08T00:42:33;25.07;64.40
78902;DHT22;70441;44.758;37.686;2023-08-08T00:43:34;25.09;64.31
78902;DHT22;70441;44.758;37.686;2023-08-08T00:44:35;25.14;64.21
78902;DHT22;70441;44.758;37.686;2023-08-08T00:45:40;25.07;64.38
78902;DHT22;70441;44.758;37.686;2023-08-08T00:46:42;25.09;64.22
78902;DHT22;70441;44.758;37.686;2023-08-08T00:47:44;25.09;64.20
78902;DHT22;70441;44.758;37.686;2023-08-08T00:48:46;25.06;64.18
78902;DHT22;70441;44.758;37.686;2023-08-08T00:49:47;25.07;64.21
78902;DHT22;70441;44.758;37.686;2023-08-08T00:50:50;25.05;64.40
78902;DHT22;70441;44.758;37.686;2023-08-08T00:51:52;25.03;64.24
78902;DHT22;70441;44.758;37.686;2023-08-08T00:52:54;25.03;64.14
78902;DHT22;70441;44.758;37.686;2023-08-08T00:53:56;25.05;64.04
78902;DHT22;70441;44.758;37.686;2023-08-08T00:54:58;25.05;64.00
78902;DHT22;70441;44.758;37.686;2023-08-08T00:56:00;25.07;63.97
78902;DHT22;70441;44.758;37.686;2023-08-08T00:57:02;25.06;63.87
78902;DHT22;70441;44.758;37.686;2023-08-08T00:58:04;25.06;63.97
78902;DHT22;70441;44.758;37.686;2023-08-08T00:59:05;25.03;63.99
78902;DHT22;70441;44.758;37.686;2023-08-08T01:00:09;25.00;64.13
78902;DHT22;70441;44.758;37.686;2023-08-08T01:01:12;24.99;64.16
78902;DHT22;70441;44.758;37.686;2023-08-08T01:02:13;24.99;64.21
78902;DHT22;70441;44.758;37.686;2023-08-08T01:03:14;24.99;64.26
78902;DHT22;70441;44.758;37.686;2023-08-08T01:04:19;24.95;64.39
78902;DHT22;70441;44.758;37.686;2023-08-08T01:05:20;24.92;64.48
78902;DHT22;70441;44.758;37.686;2023-08-08T01:06:47;24.89;64.57
78902;DHT22;70441;44.758;37.686;2023-08-08T01:07:54;24.86;64.72
78902;DHT22;70441;44.758;37.686;2023-08-08T01:09:03;24.86;65.04
78902;DHT22;70441;44.758;37.686;2023-08-08T01:10:09;24.81;65.21
78902;DHT22;70441;44.758;37.686;2023-08-08T01:11:14;24.81;65.28
78902;DHT22;70441;44.758;37.686;2023-08-08T01:12:16;24.78;65.27
78902;DHT22;70441;44.758;37.686;2023-08-08T01:13:21;24.79;65.36
78902;DHT22;70441;44.758;37.686;2023-08-08T01:14:24;24.79;65.39
78902;DHT22;70441;44.758;37.686;2023-08-08T01:15:28;24.82;65.45
78902;DHT22;70441;44.758;37.686;2023-08-08T01:16:33;24.81;65.58
78902;DHT22;70441;44.758;37.686;2023-08-08T01:17:36;24.79;65.68
78902;DHT22;70441;44.758;37.686;2023-08-08T01:18:38;24.78;65.86
78902;DHT22;70441;44.758;37.686;2023-08-08T01:19:40;24.81;66.11
78902;DHT22;70441;44.758;37.686;2023-08-08T01:20:42;24.75;66.30
78902;DHT22;70441;44.758;37.686;2023-08-08T01:21:44;24.75;66.54
78902;DHT22;70441;44.758;37.686;2023-08-08T01:24:02;24.76;66.86
78902;DHT22;70441;44.758;37.686;2023-08-08T01:25:07;24.72;67.06
78902;DHT22;70441;44.758;37.686;2023-08-08T01:26:09;24.74;67.21
78902;DHT22;70441;44.758;37.686;2023-08-08T01:27:11;24.69;67.30
78902;DHT22;70441;44.758;37.686;2023-08-08T01:28:12;24.69;67.40
78902;DHT22;70441;44.758;37.686;2023-08-08T01:29:14;24.69;67.59
78902;DHT22;70441;44.758;37.686;2023-08-08T01:30:15;24.69;67.76
78902;DHT22;70441;44.758;37.686;2023-08-08T01:31:17;24.65;67.91
78902;DHT22;70441;44.758;37.686;2023-08-08T01:32:18;24.64;68.01
78902;DHT22;70441;44.758;37.686;2023-08-08T01:33:19;24.63;68.25
78902;DHT22;70441;44.758;37.686;2023-08-08T01:34:21;24.61;68.28
78902;DHT22;70441;44.758;37.686;2023-08-08T01:35:26;24.64;68.30
78902;DHT22;70441;44.758;37.686;2023-08-08T01:36:57;24.67;68.42
78902;DHT22;70441;44.758;37.686;2023-08-08T01:38:05;24.67;68.36
78902;DHT22;70441;44.758;37.686;2023-08-08T01:39:14;24.68;68.47
78902;DHT22;70441;44.758;37.686;2023-08-08T01:40:18;24.68;68.54
78902;DHT22;70441;44.758;37.686;2023-08-08T01:41:21;24.65;68.58
78902;DHT22;70441;44.758;37.686;2023-08-08T01:42:25;24.68;68.28
78902;DHT22;70441;44.758;37.686;2023-08-08T01:43:27;24.74;68.03
78902;DHT22;70441;44.758;37.686;2023-08-08T01:44:28;24.78;67.76
78902;DHT22;70441;44.758;37.686;2023-08-08T01:45:30;24.79;67.64
78902;DHT22;70441;44.758;37.686;2023-08-08T01:46:32;24.85;67.73
78902;DHT22;70441;44.758;37.686;2023-08-08T01:47:33;24.89;67.77
78902;DHT22;70441;44.758;37.686;2023-08-08T01:48:35;24.88;67.28
78902;DHT22;70441;44.758;37.686;2023-08-08T01:49:36;24.95;67.31
78902;DHT22;70441;44.758;37.686;2023-08-08T01:50:37;24.96;67.44
78902;DHT22;70441;44.758;37.686;2023-08-08T01:51:39;24.95;67.52
78902;DHT22;70441;44.758;37.686;2023-08-08T01:52:43;24.95;67.57
78902;DHT22;70441;44.758;37.686;2023-08-08T01:53:44;24.93;67.18
78902;DHT22;70441;44.758;37.686;2023-08-08T01:54:45;24.98;66.87
78902;DHT22;70441;44.758;37.686;2023-08-08T01:55:47;25.02;66.94
78902;DHT22;70441;44.758;37.686;2023-08-08T01:56:48;25.05;66.86
78902;DHT22;70441;44.758;37.686;2023-08-08T01:57:49;25.05;66.93
78902;DHT22;70441;44.758;37.686;2023-08-08T01:58:51;25.05;67.15
78902;DHT22;70441;44.758;37.686;2023-08-08T01:59:52;25.02;67.18
78902;DHT22;70441;44.758;37.686;2023-08-08T02:00:53;24.99;67.31
78902;DHT22;70441;44.758;37.686;2023-08-08T02:01:55;24.98;67.10
78902;DHT22;70441;44.758;37.686;2023-08-08T02:02:56;24.96;67.21
78902;DHT22;70441;44.758;37.686;2023-08-08T02:03:59;24.96;66.99
78902;DHT22;70441;44.758;37.686;2023-08-08T02:05:02;24.96;66.65
78902;DHT22;70441;44.758;37.686;2023-08-08T02:06:04;25.00;66.54
78902;DHT22;70441;44.758;37.686;2023-08-08T02:07:05;25.02;66.27
78902;DHT22;70441;44.758;37.686;2023-08-08T02:08:06;25.06;66.39
78902;DHT22;70441;44.758;37.686;2023-08-08T02:09:09;25.10;66.54
78902;DHT22;70441;44.758;37.686;2023-08-08T02:10:11;25.06;66.25
78902;DHT22;70441;44.758;37.686;2023-08-08T02:11:12;25.07;66.49
78902;DHT22;70441;44.758;37.686;2023-08-08T02:12:13;25.09;66.18
78902;DHT22;70441;44.758;37.686;2023-08-08T02:13:15;25.10;66.38
78902;DHT22;70441;44.758;37.686;2023-08-08T02:14:17;25.10;66.44
78902;DHT22;70441;44.758;37.686;2023-08-08T02:15:18;25.14;66.40
78902;DHT22;70441;44.758;37.686;2023-08-08T02:16:19;25.13;66.43
78902;DHT22;70441;44.758;37.686;2023-08-08T02:17:21;25.13;66.29
78902;DHT22;70441;44.758;37.686;2023-08-08T02:18:22;25.14;65.95
78902;DHT22;70441;44.758;37.686;2023-08-08T02:19:23;25.20;65.88
78902;DHT22;70441;44.758;37.686;2023-08-08T02:20:25;25.23;66.05
78902;DHT22;70441;44.758;37.686;2023-08-08T02:21:27;25.22;65.88
78902;DHT22;70441;44.758;37.686;2023-08-08T02:22:28;25.20;65.79
78902;DHT22;70441;44.758;37.686;2023-08-08T02:23:30;25.24;65.91
78902;DHT22;70441;44.758;37.686;2023-08-08T02:24:32;25.23;66.05
78902;DHT22;70441;44.758;37.686;2023-08-08T02:25:33;25.30;66.10
78902;DHT22;70441;44.758;37.686;2023-08-08T02:26:35;25.28;66.08
78902;DHT22;70441;44.758;37.686;2023-08-08T02:27:40;25.26;66.24
78902;DHT22;70441;44.758;37.686;2023-08-08T02:28:44;25.26;66.32
78902;DHT22;70441;44.758;37.686;2023-08-08T02:29:45;25.27;66.28
78902;DHT22;70441;44.758;37.686;2023-08-08T02:30:47;25.26;66.21
78902;DHT22;70441;44.758;37.686;2023-08-08T02:31:48;25.28;66.19
78902;DHT22;70441;44.758;37.686;2023-08-08T02:32:49;25.34;66.19
78902;DHT22;70441;44.758;37.686;2023-08-08T02:33:52;25.34;66.04
78902;DHT22;70441;44.758;37.686;2023-08-08T02:34:54;25.35;66.06
78902;DHT22;70441;44.758;37.686;2023-08-08T02:35:55;25.38;66.16
78902;DHT22;70441;44.758;37.686;2023-08-08T02:36:57;25.37;65.80
78902;DHT22;70441;44.758;37.686;2023-08-08T02:37:58;25.42;65.72
78902;DHT22;70441;44.758;37.686;2023-08-08T02:39:00;25.45;65.90
78902;DHT22;70441;44.758;37.686;2023-08-08T02:40:01;25.41;65.72
78902;DHT22;70441;44.758;37.686;2023-08-08T02:41:02;25.44;65.82
78902;DHT22;70441;44.758;37.686;2023-08-08T02:42:04;25.42;65.71
78902;DHT22;70441;44.758;37.686;2023-08-08T02:43:06;25.38;65.75
78902;DHT22;70441;44.758;37.686;2023-08-08T02:44:10;25.38;65.89
78902;DHT22;70441;44.758;37.686;2023-08-08T02:45:11;25.35;66.10
78902;DHT22;70441;44.758;37.686;2023-08-08T02:46:13;25.33;66.08
78902;DHT22;70441;44.758;37.686;2023-08-08T02:47:14;25.31;66.09
78902;DHT22;70441;44.758;37.686;2023-08-08T02:48:16;25.33;66.06
78902;DHT22;70441;44.758;37.686;2023-08-08T02:49:18;25.33;66.22
78902;DHT22;70441;44.758;37.686;2023-08-08T02:50:20;25.34;66.23
78902;DHT22;70441;44.758;37.686;2023-08-08T02:51:21;25.31;66.16
78902;DHT22;70441;44.758;37.686;2023-08-08T02:52:23;25.34;65.96
78902;DHT22;70441;44.758;37.686;2023-08-08T02:53:24;25.38;66.02
78902;DHT22;70441;44.758;37.686;2023-08-08T02:54:26;25.42;66.02
78902;DHT22;70441;44.758;37.686;2023-08-08T02:55:28;25.44;65.89
78902;DHT22;70441;44.758;37.686;2023-08-08T02:56:29;25.49;65.63
78902;DHT22;70441;44.758;37.686;2023-08-08T02:57:31;25.54;65.49
78902;DHT22;70441;44.758;37.686;2023-08-08T02:58:32;25.54;65.35
78902;DHT22;70441;44.758;37.686;2023-08-08T02:59:34;25.58;65.18
78902;DHT22;70441;44.758;37.686;2023-08-08T03:00:39;25.62;65.32
78902;DHT22;70441;44.758;37.686;2023-08-08T03:01:43;25.66;65.14
78902;DHT22;70441;44.758;37.686;2023-08-08T03:02:51;25.73;64.81
78902;DHT22;70441;44.758;37.686;2023-08-08T03:03:52;25.83;64.41
78902;DHT22;70441;44.758;37.686;2023-08-08T03:04:55;25.93;64.20
78902;DHT22;70441;44.758;37.686;2023-08-08T03:06:00;26.04;63.91
78902;DHT22;70441;44.758;37.686;2023-08-08T03:07:02;26.16;63.57
78902;DHT22;70441;44.758;37.686;2023-08-08T03:08:07;26.24;63.54
78902;DHT22;70441;44.758;37.686;2023-08-08T03:09:08;26.30;63.48
78902;DHT22;70441;44.758;37.686;2023-08-08T03:10:12;26.40;63.27
78902;DHT22;70441;44.758;37.686;2023-08-08T03:11:15;26.49;62.98
78902;DHT22;70441;44.758;37.686;2023-08-08T03:12:18;26.52;62.77
78902;DHT22;70441;44.758;37.686;2023-08-08T03:13:19;26.58;62.61
78902;DHT22;70441;44.758;37.686;2023-08-08T03:14:23;26.66;62.56
78902;DHT22;70441;44.758;37.686;2023-08-08T03:15:25;26.68;62.56
78902;DHT22;70441;44.758;37.686;2023-08-08T03:16:26;26.75;62.34
78902;DHT22;70441;44.758;37.686;2023-08-08T03:17:29;26.79;62.39
78902;DHT22;70441;44.758;37.686;2023-08-08T03:18:31;26.83;62.86
78902;DHT22;70441;44.758;37.686;2023-08-08T03:19:32;26.97;62.24
78902;DHT22;70441;44.758;37.686;2023-08-08T03:20:35;27.07;62.01
78902;DHT22;70441;44.758;37.686;2023-08-08T03:21:36;27.11;61.84
78902;DHT22;70441;44.758;37.686;2023-08-08T03:22:38;27.25;61.40
78902;DHT22;70441;44.758;37.686;2023-08-08T03:23:40;27.24;61.37
78902;DHT22;70441;44.758;37.686;2023-08-08T03:24:41;27.34;61.56
78902;DHT22;70441;44.758;37.686;2023-08-08T03:25:43;27.42;61.54
78902;DHT22;70441;44.758;37.686;2023-08-08T03:26:44;27.48;61.48
78902;DHT22;70441;44.758;37.686;2023-08-08T03:27:46;27.52;60.99
78902;DHT22;70441;44.758;37.686;2023-08-08T03:28:49;27.55;61.14
78902;DHT22;70441;44.758;37.686;2023-08-08T03:29:57;27.63;60.76
78902;DHT22;70441;44.758;37.686;2023-08-08T03:30:58;27.62;61.15
78902;DHT22;70441;44.758;37.686;2023-08-08T03:32:01;27.63;62.13
78902;DHT22;70441;44.758;37.686;2023-08-08T03:33:06;27.73;61.57
78902;DHT22;70441;44.758;37.686;2023-08-08T03:34:08;27.87;60.83
78902;DHT22;70441;44.758;37.686;2023-08-08T03:35:10;27.98;60.59
78902;DHT22;70441;44.758;37.686;2023-08-08T03:36:15;28.14;60.27
78902;DHT22;70441;44.758;37.686;2023-08-08T03:37:16;28.31;59.95
78902;DHT22;70441;44.758;37.686;2023-08-08T03:38:18;28.49;59.77
78902;DHT22;70441;44.758;37.686;2023-08-08T03:39:23;28.64;59.57
78902;DHT22;70441;44.758;37.686;2023-08-08T03:40:25;28.80;59.30
78902;DHT22;70441;44.758;37.686;2023-08-08T03:41:26;28.92;59.61
78902;DHT22;70441;44.758;37.686;2023-08-08T03:42:28;29.07;58.92
78902;DHT22;70441;44.758;37.686;2023-08-08T03:43:29;29.16;58.69
78902;DHT22;70441;44.758;37.686;2023-08-08T03:44:31;29.26;58.52
78902;DHT22;70441;44.758;37.686;2023-08-08T03:45:33;29.33;57.98
78902;DHT22;70441;44.758;37.686;2023-08-08T03:46:34;29.46;58.61
78902;DHT22;70441;44.758;37.686;2023-08-08T03:47:36;29.58;58.62
78902;DHT22;70441;44.758;37.686;2023-08-08T03:48:38;29.73;57.59
78902;DHT22;70441;44.758;37.686;2023-08-08T03:49:40;29.85;57.10
78902;DHT22;70441;44.758;37.686;2023-08-08T03:50:41;29.92;57.63
78902;DHT22;70441;44.758;37.686;2023-08-08T03:51:43;29.97;57.31
78902;DHT22;70441;44.758;37.686;2023-08-08T03:52:45;30.04;57.30
78902;DHT22;70441;44.758;37.686;2023-08-08T03:53:47;30.12;56.86
78902;DHT22;70441;44.758;37.686;2023-08-08T03:54:48;30.15;56.77
78902;DHT22;70441;44.758;37.686;2023-08-08T03:55:50;30.17;56.83
78902;DHT22;70441;44.758;37.686;2023-08-08T03:56:52;30.23;56.96
78902;DHT22;70441;44.758;37.686;2023-08-08T03:57:55;30.32;56.49
78902;DHT22;70441;44.758;37.686;2023-08-08T03:58:57;30.37;56.53
78902;DHT22;70441;44.758;37.686;2023-08-08T03:59:59;30.41;56.58
78902;DHT22;70441;44.758;37.686;2023-08-08T04:01:01;30.48;56.13
78902;DHT22;70441;44.758;37.686;2023-08-08T04:02:02;30.57;56.27
78902;DHT22;70441;44.758;37.686;2023-08-08T04:03:04;30.64;55.72
78902;DHT22;70441;44.758;37.686;2023-08-08T04:04:05;30.72;55.55
78902;DHT22;70441;44.758;37.686;2023-08-08T04:05:07;30.75;55.47
78902;DHT22;70441;44.758;37.686;2023-08-08T04:06:09;30.78;55.88
78902;DHT22;70441;44.758;37.686;2023-08-08T04:07:11;30.79;55.68
78902;DHT22;70441;44.758;37.686;2023-08-08T04:08:14;30.88;55.16
78902;DHT22;70441;44.758;37.686;2023-08-08T04:09:16;30.95;55.52
78902;DHT22;70441;44.758;37.686;2023-08-08T04:10:17;30.95;55.04
78902;DHT22;70441;44.758;37.686;2023-08-08T04:11:19;31.04;54.88
78902;DHT22;70441;44.758;37.686;2023-08-08T04:12:20;31.12;54.55
78902;DHT22;70441;44.758;37.686;2023-08-08T04:13:22;31.13;54.54
78902;DHT22;70441;44.758;37.686;2023-08-08T04:14:23;31.19;54.36
78902;DHT22;70441;44.758;37.686;2023-08-08T04:15:25;31.25;54.30
78902;DHT22;70441;44.758;37.686;2023-08-08T04:16:26;31.25;54.74
78902;DHT22;70441;44.758;37.686;2023-08-08T04:17:28;31.29;54.40
78902;DHT22;70441;44.758;37.686;2023-08-08T04:18:29;31.40;54.14
78902;DHT22;70441;44.758;37.686;2023-08-08T04:19:31;31.41;53.82
78902;DHT22;70441;44.758;37.686;2023-08-08T04:20:36;31.47;54.05
78902;DHT22;70441;44.758;37.686;2023-08-08T04:21:37;31.51;54.08
78902;DHT22;70441;44.758;37.686;2023-08-08T04:22:39;31.51;53.98
78902;DHT22;70441;44.758;37.686;2023-08-08T04:23:41;31.57;53.77
78902;DHT22;70441;44.758;37.686;2023-08-08T04:24:43;31.59;53.57
78902;DHT22;70441;44.758;37.686;2023-08-08T04:25:45;31.61;53.90
78902;DHT22;70441;44.758;37.686;2023-08-08T04:26:46;31.64;53.05
78902;DHT22;70441;44.758;37.686;2023-08-08T04:27:48;31.62;53.23
78902;DHT22;70441;44.758;37.686;2023-08-08T04:28:49;31.67;52.58
78902;DHT22;70441;44.758;37.686;2023-08-08T04:29:51;31.58;53.01
78902;DHT22;70441;44.758;37.686;2023-08-08T04:30:52;31.65;53.37
78902;DHT22;70441;44.758;37.686;2023-08-08T04:31:54;31.75;52.98
78902;DHT22;70441;44.758;37.686;2023-08-08T04:32:59;31.78;53.01
78902;DHT22;70441;44.758;37.686;2023-08-08T04:34:01;31.84;53.39
78902;DHT22;70441;44.758;37.686;2023-08-08T04:35:03;31.94;53.03
78902;DHT22;70441;44.758;37.686;2023-08-08T04:36:04;32.03;52.44
78902;DHT22;70441;44.758;37.686;2023-08-08T04:37:06;32.08;52.06
78902;DHT22;70441;44.758;37.686;2023-08-08T04:38:08;32.14;52.12
78902;DHT22;70441;44.758;37.686;2023-08-08T04:39:10;32.20;51.87
78902;DHT22;70441;44.758;37.686;2023-08-08T04:40:12;32.28;52.21
78902;DHT22;70441;44.758;37.686;2023-08-08T04:41:13;32.34;52.15
78902;DHT22;70441;44.758;37.686;2023-08-08T04:42:15;32.38;51.78
78902;DHT22;70441;44.758;37.686;2023-08-08T04:43:16;32.44;50.83
78902;DHT22;70441;44.758;37.686;2023-08-08T04:44:18;32.44;51.08
78902;DHT22;70441;44.758;37.686;2023-08-08T04:45:19;32.45;51.10
78902;DHT22;70441;44.758;37.686;2023-08-08T04:46:22;32.51;51.03
78902;DHT22;70441;44.758;37.686;2023-08-08T04:47:23;32.48;50.22
78902;DHT22;70441;44.758;37.686;2023-08-08T04:48:25;32.45;50.55
78902;DHT22;70441;44.758;37.686;2023-08-08T04:49:27;32.50;50.00
78902;DHT22;70441;44.758;37.686;2023-08-08T04:50:30;32.43;51.01
78902;DHT22;70441;44.758;37.686;2023-08-08T04:51:31;32.45;51.10
78902;DHT22;70441;44.758;37.686;2023-08-08T04:52:33;32.51;51.15
78902;DHT22;70441;44.758;37.686;2023-08-08T04:53:37;32.55;50.78
78902;DHT22;70441;44.758;37.686;2023-08-08T04:54:38;32.57;50.86
78902;DHT22;70441;44.758;37.686;2023-08-08T04:55:40;32.57;50.68
78902;DHT22;70441;44.758;37.686;2023-08-08T04:56:41;32.58;50.49
78902;DHT22;70441;44.758;37.686;2023-08-08T04:57:43;32.62;50.82
78902;DHT22;70441;44.758;37.686;2023-08-08T04:58:45;32.68;50.50
78902;DHT22;70441;44.758;37.686;2023-08-08T04:59:46;32.75;50.00
78902;DHT22;70441;44.758;37.686;2023-08-08T05:00:47;32.75;49.89
78902;DHT22;70441;44.758;37.686;2023-08-08T05:01:49;32.71;50.09
78902;DHT22;70441;44.758;37.686;2023-08-08T05:02:51;32.74;50.06
78902;DHT22;70441;44.758;37.686;2023-08-08T05:03:53;32.80;49.80
78902;DHT22;70441;44.758;37.686;2023-08-08T05:04:54;32.82;50.48
78902;DHT22;70441;44.758;37.686;2023-08-08T05:05:56;32.89;49.76
78902;DHT22;70441;44.758;37.686;2023-08-08T05:06:57;32.96;49.17
78902;DHT22;70441;44.758;37.686;2023-08-08T05:07:59;33.02;49.78
78902;DHT22;70441;44.758;37.686;2023-08-08T05:09:00;33.10;48.62
78902;DHT22;70441;44.758;37.686;2023-08-08T05:10:02;33.17;48.47
78902;DHT22;70441;44.758;37.686;2023-08-08T05:11:04;33.23;48.84
78902;DHT22;70441;44.758;37.686;2023-08-08T05:12:05;33.30;48.30
78902;DHT22;70441;44.758;37.686;2023-08-08T05:13:08;33.27;48.56
78902;DHT22;70441;44.758;37.686;2023-08-08T05:14:10;33.33;47.85
78902;DHT22;70441;44.758;37.686;2023-08-08T05:15:11;33.31;47.81
78902;DHT22;70441;44.758;37.686;2023-08-08T05:16:13;33.40;47.70
78902;DHT22;70441;44.758;37.686;2023-08-08T05:17:15;33.37;48.21
78902;DHT22;70441;44.758;37.686;2023-08-08T05:18:16;33.42;47.81
78902;DHT22;70441;44.758;37.686;2023-08-08T05:19:18;33.42;47.47
78902;DHT22;70441;44.758;37.686;2023-08-08T05:20:19;33.41;48.17
78902;DHT22;70441;44.758;37.686;2023-08-08T05:21:21;33.51;47.18
78902;DHT22;70441;44.758;37.686;2023-08-08T05:22:23;33.51;46.80
78902;DHT22;70441;44.758;37.686;2023-08-08T05:23:24;33.50;47.66
78902;DHT22;70441;44.758;37.686;2023-08-08T05:24:26;33.58;46.84
78902;DHT22;70441;44.758;37.686;2023-08-08T05:25:27;33.55;47.53
78902;DHT22;70441;44.758;37.686;2023-08-08T05:26:29;33.61;47.26
78902;DHT22;70441;44.758;37.686;2023-08-08T05:27:31;33.72;47.34
78902;DHT22;70441;44.758;37.686;2023-08-08T05:28:32;33.79;47.15
78902;DHT22;70441;44.758;37.686;2023-08-08T05:29:34;33.83;46.65
78902;DHT22;70441;44.758;37.686;2023-08-08T05:30:39;33.89;47.19
78902;DHT22;70441;44.758;37.686;2023-08-08T05:31:40;34.00;46.87
78902;DHT22;70441;44.758;37.686;2023-08-08T05:32:42;34.04;45.94
78902;DHT22;70441;44.758;37.686;2023-08-08T05:33:43;33.97;46.39
78902;DHT22;70441;44.758;37.686;2023-08-08T05:34:45;34.01;46.14
78902;DHT22;70441;44.758;37.686;2023-08-08T05:35:46;34.16;46.30
78902;DHT22;70441;44.758;37.686;2023-08-08T05:36:48;34.24;46.55
78902;DHT22;70441;44.758;37.686;2023-08-08T05:37:49;34.29;46.24
78902;DHT22;70441;44.758;37.686;2023-08-08T05:38:51;34.33;45.77
78902;DHT22;70441;44.758;37.686;2023-08-08T05:39:53;34.35;45.61
78902;DHT22;70441;44.758;37.686;2023-08-08T05:40:55;34.42;45.60
78902;DHT22;70441;44.758;37.686;2023-08-08T05:41:57;34.53;45.70
78902;DHT22;70441;44.758;37.686;2023-08-08T05:42:58;34.56;44.82
78902;DHT22;70441;44.758;37.686;2023-08-08T05:44:00;34.53;45.42
78902;DHT22;70441;44.758;37.686;2023-08-08T05:45:01;34.62;45.92
78902;DHT22;70441;44.758;37.686;2023-08-08T05:46:03;34.66;45.67
78902;DHT22;70441;44.758;37.686;2023-08-08T05:47:06;34.68;45.78
78902;DHT22;70441;44.758;37.686;2023-08-08T05:48:07;34.65;45.25
78902;DHT22;70441;44.758;37.686;2023-08-08T05:49:11;34.63;45.47
78902;DHT22;70441;44.758;37.686;2023-08-08T05:50:18;34.68;45.28
78902;DHT22;70441;44.758;37.686;2023-08-08T05:51:20;34.72;45.30
78902;DHT22;70441;44.758;37.686;2023-08-08T05:52:22;34.78;44.63
78902;DHT22;70441;44.758;37.686;2023-08-08T05:53:24;34.82;44.77
78902;DHT22;70441;44.758;37.686;2023-08-08T05:54:25;34.87;45.01
78902;DHT22;70441;44.758;37.686;2023-08-08T05:55:30;34.90;44.18
78902;DHT22;70441;44.758;37.686;2023-08-08T05:56:38;34.86;44.32
78902;DHT22;70441;44.758;37.686;2023-08-08T05:57:45;34.87;45.17
78902;DHT22;70441;44.758;37.686;2023-08-08T05:58:47;34.97;44.13
78902;DHT22;70441;44.758;37.686;2023-08-08T05:59:48;34.82;44.33
78902;DHT22;70441;44.758;37.686;2023-08-08T06:00:50;34.83;44.68
78902;DHT22;70441;44.758;37.686;2023-08-08T06:01:55;34.87;44.35
78902;DHT22;70441;44.758;37.686;2023-08-08T06:03:00;34.93;44.51
78902;DHT22;70441;44.758;37.686;2023-08-08T06:04:01;34.96;43.68
78902;DHT22;70441;44.758;37.686;2023-08-08T06:05:05;35.00;44.05
78902;DHT22;70441;44.758;37.686;2023-08-08T06:06:07;35.00;43.72
78902;DHT22;70441;44.758;37.686;2023-08-08T06:07:11;34.96;44.03
78902;DHT22;70441;44.758;37.686;2023-08-08T06:08:13;35.03;43.63
78902;DHT22;70441;44.758;37.686;2023-08-08T06:09:16;35.06;43.30
78902;DHT22;70441;44.758;37.686;2023-08-08T06:10:18;35.01;43.57
78902;DHT22;70441;44.758;37.686;2023-08-08T06:11:19;35.01;43.84
78902;DHT22;70441;44.758;37.686;2023-08-08T06:12:22;35.01;43.72
78902;DHT22;70441;44.758;37.686;2023-08-08T06:13:24;35.08;43.60
78902;DHT22;70441;44.758;37.686;2023-08-08T06:14:25;35.11;42.84
78902;DHT22;70441;44.758;37.686;2023-08-08T06:15:27;35.15;41.71
78902;DHT22;70441;44.758;37.686;2023-08-08T06:16:28;35.17;41.34
78902;DHT22;70441;44.758;37.686;2023-08-08T06:17:30;35.15;40.76
78902;DHT22;70441;44.758;37.686;2023-08-08T06:18:33;35.11;41.83
78902;DHT22;70441;44.758;37.686;2023-08-08T06:19:34;35.13;41.43
78902;DHT22;70441;44.758;37.686;2023-08-08T06:20:36;35.15;42.01
78902;DHT22;70441;44.758;37.686;2023-08-08T06:21:38;35.21;43.00
78902;DHT22;70441;44.758;37.686;2023-08-08T06:22:41;35.31;41.94
78902;DHT22;70441;44.758;37.686;2023-08-08T06:23:46;35.30;41.74
78902;DHT22;70441;44.758;37.686;2023-08-08T06:24:49;35.32;41.16
78902;DHT22;70441;44.758;37.686;2023-08-08T06:25:50;35.35;41.10
78902;DHT22;70441;44.758;37.686;2023-08-08T06:26:52;35.28;41.19
78902;DHT22;70441;44.758;37.686;2023-08-08T06:27:54;35.32;40.70